﻿<?xml version="1.0" encoding="utf-8"?><gpx creator="Garmin Desktop App" version="1.1" xsi:schemaLocation="http://www.topografix.com/GPX/1/1 http://www.topografix.com/GPX/1/1/gpx.xsd http://www.garmin.com/xmlschemas/WaypointExtension/v1 http://www8.garmin.com/xmlschemas/WaypointExtensionv1.xsd http://www.garmin.com/xmlschemas/TrackPointExtension/v1 http://www.garmin.com/xmlschemas/TrackPointExtensionv1.xsd http://www.garmin.com/xmlschemas/GpxExtensions/v3 http://www8.garmin.com/xmlschemas/GpxExtensionsv3.xsd http://www.garmin.com/xmlschemas/ActivityExtension/v1 http://www8.garmin.com/xmlschemas/ActivityExtensionv1.xsd http://www.garmin.com/xmlschemas/AdventuresExtensions/v1 http://www8.garmin.com/xmlschemas/AdventuresExtensionv1.xsd http://www.garmin.com/xmlschemas/PressureExtension/v1 http://www.garmin.com/xmlschemas/PressureExtensionv1.xsd http://www.garmin.com/xmlschemas/TripExtensions/v1 http://www.garmin.com/xmlschemas/TripExtensionsv1.xsd http://www.garmin.com/xmlschemas/TripMetaDataExtensions/v1 http://www.garmin.com/xmlschemas/TripMetaDataExtensionsv1.xsd http://www.garmin.com/xmlschemas/ViaPointTransportationModeExtensions/v1 http://www.garmin.com/xmlschemas/ViaPointTransportationModeExtensionsv1.xsd http://www.garmin.com/xmlschemas/CreationTimeExtension/v1 http://www.garmin.com/xmlschemas/CreationTimeExtensionsv1.xsd http://www.garmin.com/xmlschemas/AccelerationExtension/v1 http://www.garmin.com/xmlschemas/AccelerationExtensionv1.xsd http://www.garmin.com/xmlschemas/PowerExtension/v1 http://www.garmin.com/xmlschemas/PowerExtensionv1.xsd http://www.garmin.com/xmlschemas/VideoExtension/v1 http://www.garmin.com/xmlschemas/VideoExtensionv1.xsd" xmlns="http://www.topografix.com/GPX/1/1" xmlns:xsi="http://www.w3.org/2001/XMLSchema-instance" xmlns:wptx1="http://www.garmin.com/xmlschemas/WaypointExtension/v1" xmlns:gpxtrx="http://www.garmin.com/xmlschemas/GpxExtensions/v3" xmlns:gpxtpx="http://www.garmin.com/xmlschemas/TrackPointExtension/v1" xmlns:gpxx="http://www.garmin.com/xmlschemas/GpxExtensions/v3" xmlns:trp="http://www.garmin.com/xmlschemas/TripExtensions/v1" xmlns:adv="http://www.garmin.com/xmlschemas/AdventuresExtensions/v1" xmlns:prs="http://www.garmin.com/xmlschemas/PressureExtension/v1" xmlns:tmd="http://www.garmin.com/xmlschemas/TripMetaDataExtensions/v1" xmlns:vptm="http://www.garmin.com/xmlschemas/ViaPointTransportationModeExtensions/v1" xmlns:ctx="http://www.garmin.com/xmlschemas/CreationTimeExtension/v1" xmlns:gpxacc="http://www.garmin.com/xmlschemas/AccelerationExtension/v1" xmlns:gpxpx="http://www.garmin.com/xmlschemas/PowerExtension/v1" xmlns:vidx1="http://www.garmin.com/xmlschemas/VideoExtension/v1">

  <metadata>
    <link href="http://www.garmin.com">
      <text>Garmin International</text>
    </link>
    <time>2017-01-08T11:02:14Z</time>
    <bounds maxlat="49.9896389991045" maxlon="8.305206410586834" minlat="49.904853031039238" minlon="8.280453309416771" />
  </metadata>

  <trk>
    <name>GauBi-Mainz</name>
    <extensions>
      <gpxx:TrackExtension>
        <gpxx:DisplayColor>Black</gpxx:DisplayColor>
      </gpxx:TrackExtension>
    </extensions>
    <trkseg>
      <trkpt lat="49.904853031039238" lon="8.28122821636498">
        <ele>146</ele>
        <time>2010-01-01T00:00:00Z</time>
      </trkpt>
      <trkpt lat="49.905477650463581" lon="8.280453309416771">
        <ele>146</ele>
        <time>2010-01-01T00:00:32Z</time>
      </trkpt>
      <trkpt lat="49.907364081591368" lon="8.286021575331688">
        <ele>147</ele>
        <time>2010-01-01T00:03:14Z</time>
      </trkpt>
      <trkpt lat="49.908389942720532" lon="8.284711735323072">
        <ele>141</ele>
        <time>2010-01-01T00:04:07Z</time>
      </trkpt>
      <trkpt lat="49.908514833077788" lon="8.287466363981366">
        <ele>141</ele>
        <time>2010-01-01T00:05:18Z</time>
      </trkpt>
      <trkpt lat="49.916114620864391" lon="8.301208661869168">
        <ele>104</ele>
        <time>2010-01-01T00:13:05Z</time>
      </trkpt>
      <trkpt lat="49.918237840756774" lon="8.302946398034692">
        <ele>101</ele>
        <time>2010-01-01T00:14:41Z</time>
      </trkpt>
      <trkpt lat="49.919811459258199" lon="8.302993420511484">
        <ele>110</ele>
        <time>2010-01-01T00:15:44Z</time>
      </trkpt>
      <trkpt lat="49.92078635841608" lon="8.30363379791379">
        <ele>114</ele>
        <time>2010-01-01T00:16:26Z</time>
      </trkpt>
      <trkpt lat="49.921492952853441" lon="8.303024852648377">
        <ele>121</ele>
        <time>2010-01-01T00:16:59Z</time>
      </trkpt>
      <trkpt lat="49.922499200329185" lon="8.302912870422006">
        <ele>117</ele>
        <time>2010-01-01T00:17:39Z</time>
      </trkpt>
      <trkpt lat="49.925410402938724" lon="8.302606344223023">
        <ele>111</ele>
        <time>2010-01-01T00:19:36Z</time>
      </trkpt>
      <trkpt lat="49.925785576924682" lon="8.303701104596257">
        <ele>112</ele>
        <time>2010-01-01T00:20:08Z</time>
      </trkpt>
      <trkpt lat="49.926560735329986" lon="8.30402422696352">
        <ele>113</ele>
        <time>2010-01-01T00:20:40Z</time>
      </trkpt>
      <trkpt lat="49.927352406084538" lon="8.304110309109092">
        <ele>111</ele>
        <time>2010-01-01T00:21:12Z</time>
      </trkpt>
      <trkpt lat="49.928107783198357" lon="8.304141238331795">
        <ele>108</ele>
        <time>2010-01-01T00:21:42Z</time>
      </trkpt>
      <trkpt lat="49.929104475304484" lon="8.303917944431305">
        <ele>100</ele>
        <time>2010-01-01T00:22:22Z</time>
      </trkpt>
      <trkpt lat="49.92913699708879" lon="8.303346466273069">
        <ele>101</ele>
        <time>2010-01-01T00:22:37Z</time>
      </trkpt>
      <trkpt lat="49.929675199091434" lon="8.30314370803535">
        <ele>102</ele>
        <time>2010-01-01T00:22:59Z</time>
      </trkpt>
      <trkpt lat="49.930474581196904" lon="8.303006831556559">
        <ele>106</ele>
        <time>2010-01-01T00:23:32Z</time>
      </trkpt>
      <trkpt lat="49.93084573186934" lon="8.303433302789927">
        <ele>107</ele>
        <time>2010-01-01T00:23:50Z</time>
      </trkpt>
      <trkpt lat="49.930938687175512" lon="8.300952762365341">
        <ele>115</ele>
        <time>2010-01-01T00:24:54Z</time>
      </trkpt>
      <trkpt lat="49.930904489010572" lon="8.299755407497287">
        <ele>116</ele>
        <time>2010-01-01T00:25:25Z</time>
      </trkpt>
      <trkpt lat="49.930820167064667" lon="8.299185605719686">
        <ele>119</ele>
        <time>2010-01-01T00:25:40Z</time>
      </trkpt>
      <trkpt lat="49.931218307465315" lon="8.298121271654964">
        <ele>126</ele>
        <time>2010-01-01T00:26:12Z</time>
      </trkpt>
      <trkpt lat="49.932692097499967" lon="8.296525944024324">
        <ele>135</ele>
        <time>2010-01-01T00:27:24Z</time>
      </trkpt>
      <trkpt lat="49.93344378657639" lon="8.295943988487124">
        <ele>138</ele>
        <time>2010-01-01T00:27:57Z</time>
      </trkpt>
      <trkpt lat="49.934133617207408" lon="8.295543920248747">
        <ele>145</ele>
        <time>2010-01-01T00:28:27Z</time>
      </trkpt>
      <trkpt lat="49.935105917975307" lon="8.295752629637718">
        <ele>156</ele>
        <time>2010-01-01T00:29:06Z</time>
      </trkpt>
      <trkpt lat="49.936799732968211" lon="8.29783134162426">
        <ele>150</ele>
        <time>2010-01-01T00:30:32Z</time>
      </trkpt>
      <trkpt lat="49.940801085904241" lon="8.297912562265992">
        <ele>163</ele>
        <time>2010-01-01T00:33:13Z</time>
      </trkpt>
      <trkpt lat="49.941449509933591" lon="8.29809813760221">
        <ele>164</ele>
        <time>2010-01-01T00:33:39Z</time>
      </trkpt>
      <trkpt lat="49.942423067986965" lon="8.29851589165628">
        <ele>160</ele>
        <time>2010-01-01T00:34:19Z</time>
      </trkpt>
      <trkpt lat="49.942730013281107" lon="8.298720410093665">
        <ele>157</ele>
        <time>2010-01-01T00:34:33Z</time>
      </trkpt>
      <trkpt lat="49.943306939676404" lon="8.298976728692651">
        <ele>159</ele>
        <time>2010-01-01T00:34:57Z</time>
      </trkpt>
      <trkpt lat="49.943656967952847" lon="8.298874134197831">
        <ele>164</ele>
        <time>2010-01-01T00:35:11Z</time>
      </trkpt>
      <trkpt lat="49.944125013425946" lon="8.298964910209179">
        <ele>166</ele>
        <time>2010-01-01T00:35:30Z</time>
      </trkpt>
      <trkpt lat="49.944646619260311" lon="8.298985194414854">
        <ele>169</ele>
        <time>2010-01-01T00:35:51Z</time>
      </trkpt>
      <trkpt lat="49.944864045828581" lon="8.299260707572103">
        <ele>165</ele>
        <time>2010-01-01T00:36:02Z</time>
      </trkpt>
      <trkpt lat="49.945682119578123" lon="8.299248805269599">
        <ele>172</ele>
        <time>2010-01-01T00:36:35Z</time>
      </trkpt>
      <trkpt lat="49.945943132042885" lon="8.299300773069263">
        <ele>172</ele>
        <time>2010-01-01T00:36:45Z</time>
      </trkpt>
      <trkpt lat="49.945945562794805" lon="8.299704780802131">
        <ele>167</ele>
        <time>2010-01-01T00:36:56Z</time>
      </trkpt>
      <trkpt lat="49.946461049839854" lon="8.300198893994093">
        <ele>165</ele>
        <time>2010-01-01T00:37:20Z</time>
      </trkpt>
      <trkpt lat="49.947325475513935" lon="8.300423193722963">
        <ele>161</ele>
        <time>2010-01-01T00:37:55Z</time>
      </trkpt>
      <trkpt lat="49.948081271722913" lon="8.300509778782725">
        <ele>163</ele>
        <time>2010-01-01T00:38:25Z</time>
      </trkpt>
      <trkpt lat="49.948594495654106" lon="8.300641709938645">
        <ele>166</ele>
        <time>2010-01-01T00:38:46Z</time>
      </trkpt>
      <trkpt lat="49.948838409036398" lon="8.300833236426115">
        <ele>165</ele>
        <time>2010-01-01T00:38:57Z</time>
      </trkpt>
      <trkpt lat="49.949285751208663" lon="8.300464516505599">
        <ele>171</ele>
        <time>2010-01-01T00:39:17Z</time>
      </trkpt>
      <trkpt lat="49.949438888579607" lon="8.300518076866865">
        <ele>171</ele>
        <time>2010-01-01T00:39:24Z</time>
      </trkpt>
      <trkpt lat="49.949606107547879" lon="8.299916507676244">
        <ele>177</ele>
        <time>2010-01-01T00:39:41Z</time>
      </trkpt>
      <trkpt lat="49.95109548792243" lon="8.300898112356663">
        <ele>175</ele>
        <time>2010-01-01T00:40:45Z</time>
      </trkpt>
      <trkpt lat="49.951833598315716" lon="8.301054686307907">
        <ele>177</ele>
        <time>2010-01-01T00:41:15Z</time>
      </trkpt>
      <trkpt lat="49.952761391177773" lon="8.301347801461816">
        <ele>175</ele>
        <time>2010-01-01T00:41:53Z</time>
      </trkpt>
      <trkpt lat="49.953706115484238" lon="8.301459532231093">
        <ele>176</ele>
        <time>2010-01-01T00:42:31Z</time>
      </trkpt>
      <trkpt lat="49.955261629074812" lon="8.301478894427419">
        <ele>173</ele>
        <time>2010-01-01T00:43:33Z</time>
      </trkpt>
      <trkpt lat="49.955776026472449" lon="8.301805872470141">
        <ele>170</ele>
        <time>2010-01-01T00:43:56Z</time>
      </trkpt>
      <trkpt lat="49.957894887775183" lon="8.302806504070759">
        <ele>169</ele>
        <time>2010-01-01T00:45:24Z</time>
      </trkpt>
      <trkpt lat="49.959751227870584" lon="8.303518379107118">
        <ele>171</ele>
        <time>2010-01-01T00:46:41Z</time>
      </trkpt>
      <trkpt lat="49.960807599127293" lon="8.304269649088383">
        <ele>169</ele>
        <time>2010-01-01T00:47:27Z</time>
      </trkpt>
      <trkpt lat="49.961565071716905" lon="8.304649014025927">
        <ele>170</ele>
        <time>2010-01-01T00:47:59Z</time>
      </trkpt>
      <trkpt lat="49.962539467960596" lon="8.305206410586834">
        <ele>170</ele>
        <time>2010-01-01T00:48:41Z</time>
      </trkpt>
      <trkpt lat="49.962579533457756" lon="8.301400942727923">
        <ele>187</ele>
        <time>2010-01-01T00:50:19Z</time>
      </trkpt>
      <trkpt lat="49.963566837832332" lon="8.301121909171343">
        <ele>180</ele>
        <time>2010-01-01T00:50:59Z</time>
      </trkpt>
      <trkpt lat="49.964412655681372" lon="8.301235064864159">
        <ele>177</ele>
        <time>2010-01-01T00:51:33Z</time>
      </trkpt>
      <trkpt lat="49.965077843517065" lon="8.301225425675511">
        <ele>170</ele>
        <time>2010-01-01T00:51:59Z</time>
      </trkpt>
      <trkpt lat="49.965291414409876" lon="8.300859974697232">
        <ele>168</ele>
        <time>2010-01-01T00:52:12Z</time>
      </trkpt>
      <trkpt lat="49.965165266767144" lon="8.297823378816247">
        <ele>170</ele>
        <time>2010-01-01T00:53:31Z</time>
      </trkpt>
      <trkpt lat="49.96514012105763" lon="8.296652929857373">
        <ele>174</ele>
        <time>2010-01-01T00:54:01Z</time>
      </trkpt>
      <trkpt lat="49.964667297899723" lon="8.294290406629443">
        <ele>182</ele>
        <time>2010-01-01T00:55:04Z</time>
      </trkpt>
      <trkpt lat="49.968828577548265" lon="8.294062335044146">
        <ele>165</ele>
        <time>2010-01-01T00:57:51Z</time>
      </trkpt>
      <trkpt lat="49.969087243080139" lon="8.293723957613111">
        <ele>169</ele>
        <time>2010-01-01T00:58:05Z</time>
      </trkpt>
      <trkpt lat="49.969599628821015" lon="8.293716497719288">
        <ele>164</ele>
        <time>2010-01-01T00:58:25Z</time>
      </trkpt>
      <trkpt lat="49.970544017851353" lon="8.293772405013442">
        <ele>153</ele>
        <time>2010-01-01T00:59:03Z</time>
      </trkpt>
      <trkpt lat="49.971089260652661" lon="8.294726265594363">
        <ele>140</ele>
        <time>2010-01-01T00:59:36Z</time>
      </trkpt>
      <trkpt lat="49.971615392714739" lon="8.295499160885811">
        <ele>126</ele>
        <time>2010-01-01T01:00:05Z</time>
      </trkpt>
      <trkpt lat="49.972094250842929" lon="8.295882549136877">
        <ele>133</ele>
        <time>2010-01-01T01:00:26Z</time>
      </trkpt>
      <trkpt lat="49.972282005473971" lon="8.295712480321527">
        <ele>137</ele>
        <time>2010-01-01T01:00:35Z</time>
      </trkpt>
      <trkpt lat="49.97287024743855" lon="8.296345146372914">
        <ele>133</ele>
        <time>2010-01-01T01:01:04Z</time>
      </trkpt>
      <trkpt lat="49.974769419059157" lon="8.293738458305597">
        <ele>132</ele>
        <time>2010-01-01T01:02:45Z</time>
      </trkpt>
      <trkpt lat="49.976486703380942" lon="8.292277408763766">
        <ele>127</ele>
        <time>2010-01-01T01:04:03Z</time>
      </trkpt>
      <trkpt lat="49.978624507784843" lon="8.290475467219949">
        <ele>129</ele>
        <time>2010-01-01T01:05:41Z</time>
      </trkpt>
      <trkpt lat="49.97888870537281" lon="8.291043173521757">
        <ele>125</ele>
        <time>2010-01-01T01:05:59Z</time>
      </trkpt>
      <trkpt lat="49.980411194264889" lon="8.290086714550853">
        <ele>124</ele>
        <time>2010-01-01T01:07:05Z</time>
      </trkpt>
      <trkpt lat="49.982608174905181" lon="8.289148109033704">
        <ele>123</ele>
        <time>2010-01-01T01:08:36Z</time>
      </trkpt>
      <trkpt lat="49.984322609379888" lon="8.291632672771812">
        <ele>120</ele>
        <time>2010-01-01T01:10:10Z</time>
      </trkpt>
      <trkpt lat="49.985320474952459" lon="8.290153937414289">
        <ele>121</ele>
        <time>2010-01-01T01:11:05Z</time>
      </trkpt>
      <trkpt lat="49.986691754311323" lon="8.287986377254129">
        <ele>122</ele>
        <time>2010-01-01T01:12:23Z</time>
      </trkpt>
      <trkpt lat="49.987826999276876" lon="8.286909889429808">
        <ele>117</ele>
        <time>2010-01-01T01:13:16Z</time>
      </trkpt>
      <trkpt lat="49.988543065264821" lon="8.287861486896873">
        <ele>116</ele>
        <time>2010-01-01T01:13:54Z</time>
      </trkpt>
      <trkpt lat="49.988934332504869" lon="8.28862264752388">
        <ele>111</ele>
        <time>2010-01-01T01:14:19Z</time>
      </trkpt>
      <trkpt lat="49.9896389991045" lon="8.287705834954977">
        <ele>110</ele>
        <time>2010-01-01T01:14:56Z</time>
      </trkpt>
    </trkseg>
  </trk>

</gpx>